sensor_id;sensor_type;location;lat;lon;timestamp;P1;durP1;ratioP1;P2;durP2;ratioP2
819;SDS011;392;48.838;2.322;2023-04-25T00:00:32;4.33;;;4.00;;
819;SDS011;392;48.838;2.322;2023-04-25T00:02:59;4.23;;;4.03;;
819;SDS011;392;48.838;2.322;2023-04-25T00:05:28;4.30;;;4.00;;
819;SDS011;392;48.838;2.322;2023-04-25T00:07:55;4.07;;;3.87;;
819;SDS011;392;48.838;2.322;2023-04-25T00:10:24;4.40;;;4.10;;
819;SDS011;392;48.838;2.322;2023-04-25T00:12:51;4.20;;;3.90;;
819;SDS011;392;48.838;2.322;2023-04-25T00:15:19;6.70;;;4.00;;
819;SDS011;392;48.838;2.322;2023-04-25T00:17:46;4.60;;;4.30;;
819;SDS011;392;48.838;2.322;2023-04-25T00:20:14;4.80;;;4.40;;
819;SDS011;392;48.838;2.322;2023-04-25T00:22:42;5.27;;;4.80;;
819;SDS011;392;48.838;2.322;2023-04-25T00:25:10;4.90;;;4.50;;
819;SDS011;392;48.838;2.322;2023-04-25T00:27:37;4.90;;;4.50;;
819;SDS011;392;48.838;2.322;2023-04-25T00:30:07;4.70;;;4.40;;
819;SDS011;392;48.838;2.322;2023-04-25T00:32:35;8.10;;;4.80;;
819;SDS011;392;48.838;2.322;2023-04-25T00:35:03;5.33;;;4.43;;
819;SDS011;392;48.838;2.322;2023-04-25T00:37:31;4.63;;;4.23;;
819;SDS011;392;48.838;2.322;2023-04-25T00:40:00;5.87;;;5.37;;
819;SDS011;392;48.838;2.322;2023-04-25T00:42:27;4.87;;;4.53;;
819;SDS011;392;48.838;2.322;2023-04-25T00:44:55;4.70;;;4.40;;
819;SDS011;392;48.838;2.322;2023-04-25T00:47:23;5.47;;;5.00;;
819;SDS011;392;48.838;2.322;2023-04-25T00:49:51;5.20;;;4.70;;
819;SDS011;392;48.838;2.322;2023-04-25T00:52:19;5.27;;;4.50;;
819;SDS011;392;48.838;2.322;2023-04-25T00:54:47;5.20;;;4.73;;
819;SDS011;392;48.838;2.322;2023-04-25T00:57:15;4.83;;;4.20;;
819;SDS011;392;48.838;2.322;2023-04-25T00:59:44;6.90;;;4.30;;
819;SDS011;392;48.838;2.322;2023-04-25T01:02:13;4.97;;;4.53;;
819;SDS011;392;48.838;2.322;2023-04-25T01:04:41;4.83;;;4.53;;
819;SDS011;392;48.838;2.322;2023-04-25T01:07:08;6.90;;;4.60;;
819;SDS011;392;48.838;2.322;2023-04-25T01:09:36;5.77;;;5.30;;
819;SDS011;392;48.838;2.322;2023-04-25T01:12:03;5.10;;;4.80;;
819;SDS011;392;48.838;2.322;2023-04-25T01:14:32;5.23;;;4.87;;
819;SDS011;392;48.838;2.322;2023-04-25T01:17:00;6.47;;;5.83;;
819;SDS011;392;48.838;2.322;2023-04-25T01:19:27;6.90;;;6.40;;
819;SDS011;392;48.838;2.322;2023-04-25T01:21:58;6.73;;;6.13;;
819;SDS011;392;48.838;2.322;2023-04-25T01:24:26;6.30;;;5.80;;
819;SDS011;392;48.838;2.322;2023-04-25T01:26:55;7.50;;;5.70;;
819;SDS011;392;48.838;2.322;2023-04-25T01:29:23;7.20;;;6.60;;
819;SDS011;392;48.838;2.322;2023-04-25T01:31:51;7.50;;;6.20;;
819;SDS011;392;48.838;2.322;2023-04-25T01:34:20;7.00;;;6.33;;
819;SDS011;392;48.838;2.322;2023-04-25T01:36:49;7.10;;;6.40;;
819;SDS011;392;48.838;2.322;2023-04-25T01:39:19;7.10;;;6.40;;
819;SDS011;392;48.838;2.322;2023-04-25T01:41:47;8.00;;;6.33;;
819;SDS011;392;48.838;2.322;2023-04-25T01:44:15;7.00;;;6.37;;
819;SDS011;392;48.838;2.322;2023-04-25T01:46:42;6.67;;;6.07;;
819;SDS011;392;48.838;2.322;2023-04-25T01:49:10;6.30;;;5.80;;
819;SDS011;392;48.838;2.322;2023-04-25T01:51:39;7.70;;;6.40;;
819;SDS011;392;48.838;2.322;2023-04-25T01:54:07;8.10;;;6.37;;
819;SDS011;392;48.838;2.322;2023-04-25T01:56:37;7.53;;;6.37;;
819;SDS011;392;48.838;2.322;2023-04-25T01:59:08;6.00;;;5.40;;
819;SDS011;392;48.838;2.322;2023-04-25T02:01:54;6.90;;;5.40;;
819;SDS011;392;48.838;2.322;2023-04-25T02:04:27;6.53;;;5.83;;
819;SDS011;392;48.838;2.322;2023-04-25T02:06:55;5.93;;;5.43;;
819;SDS011;392;48.838;2.322;2023-04-25T02:09:25;6.40;;;5.80;;
819;SDS011;392;48.838;2.322;2023-04-25T02:11:56;8.00;;;6.80;;
819;SDS011;392;48.838;2.322;2023-04-25T02:14:56;7.20;;;6.50;;
819;SDS011;392;48.838;2.322;2023-04-25T02:17:32;7.20;;;6.50;;
819;SDS011;392;48.838;2.322;2023-04-25T02:20:00;7.00;;;6.30;;
819;SDS011;392;48.838;2.322;2023-04-25T02:22:28;7.43;;;5.70;;
819;SDS011;392;48.838;2.322;2023-04-25T02:24:56;6.83;;;6.17;;
819;SDS011;392;48.838;2.322;2023-04-25T02:27:24;7.30;;;6.10;;
819;SDS011;392;48.838;2.322;2023-04-25T02:29:52;7.17;;;6.47;;
819;SDS011;392;48.838;2.322;2023-04-25T02:32:19;7.27;;;6.57;;
819;SDS011;392;48.838;2.322;2023-04-25T02:34:46;8.60;;;6.30;;
819;SDS011;392;48.838;2.322;2023-04-25T02:37:14;6.90;;;6.30;;
819;SDS011;392;48.838;2.322;2023-04-25T02:39:44;8.77;;;6.60;;
819;SDS011;392;48.838;2.322;2023-04-25T02:42:12;6.90;;;6.40;;
819;SDS011;392;48.838;2.322;2023-04-25T02:44:41;8.57;;;7.30;;
819;SDS011;392;48.838;2.322;2023-04-25T02:47:08;8.17;;;6.90;;
819;SDS011;392;48.838;2.322;2023-04-25T02:49:35;8.07;;;6.80;;
819;SDS011;392;48.838;2.322;2023-04-25T02:52:03;7.67;;;6.90;;
819;SDS011;392;48.838;2.322;2023-04-25T02:54:31;7.80;;;7.00;;
819;SDS011;392;48.838;2.322;2023-04-25T02:56:59;7.60;;;6.80;;
819;SDS011;392;48.838;2.322;2023-04-25T02:59:31;9.30;;;7.67;;
819;SDS011;392;48.838;2.322;2023-04-25T03:02:00;9.03;;;8.00;;
819;SDS011;392;48.838;2.322;2023-04-25T03:04:27;10.37;;;7.47;;
819;SDS011;392;48.838;2.322;2023-04-25T03:06:55;7.50;;;6.73;;
819;SDS011;392;48.838;2.322;2023-04-25T03:09:22;7.73;;;6.93;;
819;SDS011;392;48.838;2.322;2023-04-25T03:11:51;9.97;;;7.00;;
819;SDS011;392;48.838;2.322;2023-04-25T03:14:19;9.53;;;6.63;;
819;SDS011;392;48.838;2.322;2023-04-25T03:16:46;8.23;;;7.43;;
819;SDS011;392;48.838;2.322;2023-04-25T03:19:14;8.40;;;6.60;;
819;SDS011;392;48.838;2.322;2023-04-25T03:21:42;8.43;;;7.57;;
819;SDS011;392;48.838;2.322;2023-04-25T03:24:11;7.93;;;7.07;;
819;SDS011;392;48.838;2.322;2023-04-25T03:26:39;9.03;;;7.30;;
819;SDS011;392;48.838;2.322;2023-04-25T03:29:07;8.40;;;7.60;;
819;SDS011;392;48.838;2.322;2023-04-25T03:31:36;9.40;;;7.40;;
819;SDS011;392;48.838;2.322;2023-04-25T03:34:04;7.30;;;6.70;;
819;SDS011;392;48.838;2.322;2023-04-25T03:36:32;8.60;;;7.70;;
819;SDS011;392;48.838;2.322;2023-04-25T03:39:00;7.90;;;7.20;;
819;SDS011;392;48.838;2.322;2023-04-25T03:41:30;9.00;;;7.83;;
819;SDS011;392;48.838;2.322;2023-04-25T03:44:03;8.63;;;7.73;;
819;SDS011;392;48.838;2.322;2023-04-25T03:46:32;8.53;;;7.50;;
819;SDS011;392;48.838;2.322;2023-04-25T03:48:59;8.93;;;7.73;;
819;SDS011;392;48.838;2.322;2023-04-25T03:51:42;8.50;;;7.60;;
819;SDS011;392;48.838;2.322;2023-04-25T03:54:09;8.80;;;7.93;;
819;SDS011;392;48.838;2.322;2023-04-25T03:56:52;9.10;;;8.23;;
819;SDS011;392;48.838;2.322;2023-04-25T03:59:22;8.03;;;7.43;;
819;SDS011;392;48.838;2.322;2023-04-25T04:01:50;8.40;;;7.53;;
819;SDS011;392;48.838;2.322;2023-04-25T04:04:17;8.73;;;7.80;;
819;SDS011;392;48.838;2.322;2023-04-25T04:06:46;8.87;;;7.70;;
819;SDS011;392;48.838;2.322;2023-04-25T04:09:19;8.47;;;7.57;;
819;SDS011;392;48.838;2.322;2023-04-25T04:11:46;9.73;;;7.43;;
819;SDS011;392;48.838;2.322;2023-04-25T04:14:14;10.33;;;8.03;;
819;SDS011;392;48.838;2.322;2023-04-25T04:16:44;10.00;;;8.00;;
819;SDS011;392;48.838;2.322;2023-04-25T04:19:12;10.23;;;8.23;;
819;SDS011;392;48.838;2.322;2023-04-25T04:21:45;9.60;;;8.17;;
819;SDS011;392;48.838;2.322;2023-04-25T04:24:13;9.10;;;7.70;;
819;SDS011;392;48.838;2.322;2023-04-25T04:27:02;9.00;;;8.10;;
819;SDS011;392;48.838;2.322;2023-04-25T04:29:38;8.93;;;8.03;;
819;SDS011;392;48.838;2.322;2023-04-25T04:32:12;9.37;;;8.47;;
819;SDS011;392;48.838;2.322;2023-04-25T04:34:41;9.70;;;7.90;;
819;SDS011;392;48.838;2.322;2023-04-25T04:37:11;10.43;;;8.03;;
819;SDS011;392;48.838;2.322;2023-04-25T04:39:41;8.67;;;7.90;;
819;SDS011;392;48.838;2.322;2023-04-25T04:42:32;9.67;;;8.00;;
819;SDS011;392;48.838;2.322;2023-04-25T04:45:10;9.67;;;7.93;;
819;SDS011;392;48.838;2.322;2023-04-25T04:47:45;10.47;;;8.77;;
819;SDS011;392;48.838;2.322;2023-04-25T04:50:32;9.50;;;8.60;;
819;SDS011;392;48.838;2.322;2023-04-25T04:53:20;8.83;;;7.93;;
819;SDS011;392;48.838;2.322;2023-04-25T04:56:01;10.37;;;9.30;;
819;SDS011;392;48.838;2.322;2023-04-25T04:58:48;9.83;;;8.40;;
819;SDS011;392;48.838;2.322;2023-04-25T05:01:34;11.77;;;9.73;;
819;SDS011;392;48.838;2.322;2023-04-25T05:04:09;11.40;;;9.90;;
819;SDS011;392;48.838;2.322;2023-04-25T05:06:59;10.13;;;9.23;;
819;SDS011;392;48.838;2.322;2023-04-25T05:09:54;10.80;;;9.70;;
819;SDS011;392;48.838;2.322;2023-04-25T05:12:45;10.03;;;9.00;;
819;SDS011;392;48.838;2.322;2023-04-25T05:15:32;10.67;;;9.57;;
819;SDS011;392;48.838;2.322;2023-04-25T05:18:25;10.17;;;9.17;;
819;SDS011;392;48.838;2.322;2023-04-25T05:21:04;10.87;;;9.77;;
819;SDS011;392;48.838;2.322;2023-04-25T05:24:01;11.10;;;10.07;;
819;SDS011;392;48.838;2.322;2023-04-25T05:26:50;11.43;;;10.33;;
819;SDS011;392;48.838;2.322;2023-04-25T05:29:41;10.53;;;9.50;;
819;SDS011;392;48.838;2.322;2023-04-25T05:32:28;10.60;;;9.50;;
819;SDS011;392;48.838;2.322;2023-04-25T05:34:56;11.63;;;9.77;;
819;SDS011;392;48.838;2.322;2023-04-25T05:37:30;10.20;;;9.13;;
819;SDS011;392;48.838;2.322;2023-04-25T05:40:06;11.27;;;10.10;;
819;SDS011;392;48.838;2.322;2023-04-25T05:42:45;10.53;;;9.57;;
819;SDS011;392;48.838;2.322;2023-04-25T05:45:44;11.93;;;9.77;;
819;SDS011;392;48.838;2.322;2023-04-25T05:48:40;12.10;;;10.90;;
819;SDS011;392;48.838;2.322;2023-04-25T05:51:26;12.33;;;10.13;;
819;SDS011;392;48.838;2.322;2023-04-25T05:54:12;11.60;;;10.30;;
819;SDS011;392;48.838;2.322;2023-04-25T05:56:40;12.70;;;10.30;;
819;SDS011;392;48.838;2.322;2023-04-25T05:59:09;12.10;;;10.67;;
819;SDS011;392;48.838;2.322;2023-04-25T06:01:36;12.37;;;11.10;;
819;SDS011;392;48.838;2.322;2023-04-25T06:04:03;11.13;;;10.13;;
819;SDS011;392;48.838;2.322;2023-04-25T06:06:32;11.43;;;10.33;;
819;SDS011;392;48.838;2.322;2023-04-25T06:08:59;13.87;;;11.30;;
819;SDS011;392;48.838;2.322;2023-04-25T06:11:27;14.23;;;12.73;;
819;SDS011;392;48.838;2.322;2023-04-25T06:13:54;12.43;;;11.13;;
819;SDS011;392;48.838;2.322;2023-04-25T06:16:23;12.53;;;10.87;;
819;SDS011;392;48.838;2.322;2023-04-25T06:18:51;11.87;;;10.67;;
819;SDS011;392;48.838;2.322;2023-04-25T06:21:18;21.23;;;11.67;;
819;SDS011;392;48.838;2.322;2023-04-25T06:23:46;11.50;;;10.30;;
819;SDS011;392;48.838;2.322;2023-04-25T06:26:19;13.37;;;12.07;;
819;SDS011;392;48.838;2.322;2023-04-25T06:28:48;13.37;;;12.00;;
819;SDS011;392;48.838;2.322;2023-04-25T06:31:16;12.03;;;10.73;;
819;SDS011;392;48.838;2.322;2023-04-25T06:33:46;13.07;;;11.57;;
819;SDS011;392;48.838;2.322;2023-04-25T06:36:13;13.17;;;10.93;;
819;SDS011;392;48.838;2.322;2023-04-25T06:38:43;10.57;;;9.67;;
819;SDS011;392;48.838;2.322;2023-04-25T06:41:10;10.73;;;9.67;;
819;SDS011;392;48.838;2.322;2023-04-25T06:43:38;11.77;;;10.63;;
819;SDS011;392;48.838;2.322;2023-04-25T06:46:31;10.00;;;8.50;;
819;SDS011;392;48.838;2.322;2023-04-25T06:49:00;9.70;;;8.90;;
819;SDS011;392;48.838;2.322;2023-04-25T06:51:28;8.97;;;8.27;;
819;SDS011;392;48.838;2.322;2023-04-25T06:53:56;9.47;;;7.57;;
819;SDS011;392;48.838;2.322;2023-04-25T06:56:29;7.23;;;6.63;;
819;SDS011;392;48.838;2.322;2023-04-25T06:59:02;8.03;;;7.27;;
819;SDS011;392;48.838;2.322;2023-04-25T07:01:32;7.63;;;7.03;;
819;SDS011;392;48.838;2.322;2023-04-25T07:04:06;7.10;;;6.60;;
819;SDS011;392;48.838;2.322;2023-04-25T07:06:38;7.17;;;6.67;;
819;SDS011;392;48.838;2.322;2023-04-25T07:09:08;8.00;;;7.30;;
819;SDS011;392;48.838;2.322;2023-04-25T07:11:36;8.27;;;7.47;;
819;SDS011;392;48.838;2.322;2023-04-25T07:14:03;8.83;;;8.13;;
819;SDS011;392;48.838;2.322;2023-04-25T07:16:31;9.50;;;8.70;;
819;SDS011;392;48.838;2.322;2023-04-25T07:18:58;10.03;;;9.10;;
819;SDS011;392;48.838;2.322;2023-04-25T07:21:28;11.63;;;10.57;;
819;SDS011;392;48.838;2.322;2023-04-25T07:23:58;11.67;;;10.63;;
819;SDS011;392;48.838;2.322;2023-04-25T07:26:30;12.97;;;11.60;;
819;SDS011;392;48.838;2.322;2023-04-25T07:29:20;14.07;;;12.87;;
819;SDS011;392;48.838;2.322;2023-04-25T07:31:48;14.00;;;12.70;;
819;SDS011;392;48.838;2.322;2023-04-25T07:34:15;14.27;;;12.70;;
819;SDS011;392;48.838;2.322;2023-04-25T07:36:44;16.53;;;14.83;;
819;SDS011;392;48.838;2.322;2023-04-25T07:39:12;15.23;;;13.83;;
819;SDS011;392;48.838;2.322;2023-04-25T07:41:39;15.57;;;14.07;;
819;SDS011;392;48.838;2.322;2023-04-25T07:44:11;16.43;;;14.43;;
819;SDS011;392;48.838;2.322;2023-04-25T07:46:39;15.33;;;13.33;;
819;SDS011;392;48.838;2.322;2023-04-25T07:49:08;17.40;;;14.90;;
819;SDS011;392;48.838;2.322;2023-04-25T07:51:35;17.57;;;14.03;;
819;SDS011;392;48.838;2.322;2023-04-25T07:54:09;16.17;;;14.27;;
819;SDS011;392;48.838;2.322;2023-04-25T07:56:48;19.10;;;15.57;;
819;SDS011;392;48.838;2.322;2023-04-25T07:59:16;16.60;;;14.37;;
819;SDS011;392;48.838;2.322;2023-04-25T08:01:44;15.00;;;12.97;;
819;SDS011;392;48.838;2.322;2023-04-25T08:04:15;14.53;;;12.93;;
819;SDS011;392;48.838;2.322;2023-04-25T08:06:49;16.63;;;11.90;;
819;SDS011;392;48.838;2.322;2023-04-25T08:09:24;16.63;;;13.47;;
819;SDS011;392;48.838;2.322;2023-04-25T08:11:52;14.03;;;11.73;;
819;SDS011;392;48.838;2.322;2023-04-25T08:14:25;14.17;;;11.67;;
819;SDS011;392;48.838;2.322;2023-04-25T08:16:54;14.27;;;12.77;;
819;SDS011;392;48.838;2.322;2023-04-25T08:19:22;12.90;;;11.23;;
819;SDS011;392;48.838;2.322;2023-04-25T08:21:50;14.30;;;12.80;;
819;SDS011;392;48.838;2.322;2023-04-25T08:24:27;13.57;;;12.17;;
819;SDS011;392;48.838;2.322;2023-04-25T08:26:54;14.83;;;11.73;;
819;SDS011;392;48.838;2.322;2023-04-25T08:29:24;13.57;;;11.73;;
819;SDS011;392;48.838;2.322;2023-04-25T08:31:52;13.83;;;12.30;;
819;SDS011;392;48.838;2.322;2023-04-25T08:34:19;12.67;;;11.37;;
819;SDS011;392;48.838;2.322;2023-04-25T08:36:48;10.97;;;9.93;;
819;SDS011;392;48.838;2.322;2023-04-25T08:39:21;10.43;;;9.43;;
819;SDS011;392;48.838;2.322;2023-04-25T08:42:08;11.67;;;10.57;;
819;SDS011;392;48.838;2.322;2023-04-25T08:44:38;12.53;;;9.53;;
819;SDS011;392;48.838;2.322;2023-04-25T08:47:05;11.20;;;10.17;;
819;SDS011;392;48.838;2.322;2023-04-25T08:49:44;11.50;;;10.30;;
819;SDS011;392;48.838;2.322;2023-04-25T08:52:13;11.90;;;10.80;;
819;SDS011;392;48.838;2.322;2023-04-25T08:54:42;12.37;;;11.17;;
819;SDS011;392;48.838;2.322;2023-04-25T08:57:13;13.37;;;10.83;;
819;SDS011;392;48.838;2.322;2023-04-25T08:59:41;12.40;;;9.97;;
819;SDS011;392;48.838;2.322;2023-04-25T09:02:11;11.73;;;10.50;;
819;SDS011;392;48.838;2.322;2023-04-25T09:04:42;14.03;;;10.63;;
819;SDS011;392;48.838;2.322;2023-04-25T09:07:10;13.30;;;10.87;;
819;SDS011;392;48.838;2.322;2023-04-25T09:09:41;12.00;;;10.90;;
819;SDS011;392;48.838;2.322;2023-04-25T09:12:08;13.53;;;11.37;;
819;SDS011;392;48.838;2.322;2023-04-25T09:14:37;13.07;;;10.27;;
819;SDS011;392;48.838;2.322;2023-04-25T09:17:17;11.77;;;10.57;;
819;SDS011;392;48.838;2.322;2023-04-25T09:19:51;12.87;;;10.90;;
819;SDS011;392;48.838;2.322;2023-04-25T09:22:24;12.87;;;11.53;;
819;SDS011;392;48.838;2.322;2023-04-25T09:24:52;11.53;;;10.07;;
819;SDS011;392;48.838;2.322;2023-04-25T09:27:22;12.40;;;11.30;;
819;SDS011;392;48.838;2.322;2023-04-25T09:30:03;14.57;;;12.10;;
819;SDS011;392;48.838;2.322;2023-04-25T09:32:47;11.87;;;10.17;;
819;SDS011;392;48.838;2.322;2023-04-25T09:35:23;11.70;;;9.00;;
819;SDS011;392;48.838;2.322;2023-04-25T09:37:52;9.97;;;8.87;;
819;SDS011;392;48.838;2.322;2023-04-25T09:40:39;10.40;;;9.40;;
819;SDS011;392;48.838;2.322;2023-04-25T09:43:19;10.47;;;9.37;;
819;SDS011;392;48.838;2.322;2023-04-25T09:45:50;10.63;;;9.53;;
819;SDS011;392;48.838;2.322;2023-04-25T09:48:24;10.67;;;9.57;;
819;SDS011;392;48.838;2.322;2023-04-25T09:51:05;10.60;;;8.63;;
819;SDS011;392;48.838;2.322;2023-04-25T09:53:35;15.73;;;11.83;;
819;SDS011;392;48.838;2.322;2023-04-25T09:56:13;14.27;;;11.57;;
819;SDS011;392;48.838;2.322;2023-04-25T09:58:41;14.87;;;11.40;;
819;SDS011;392;48.838;2.322;2023-04-25T10:01:10;12.57;;;10.70;;
819;SDS011;392;48.838;2.322;2023-04-25T10:03:54;15.57;;;10.10;;
819;SDS011;392;48.838;2.322;2023-04-25T10:06:46;11.43;;;9.60;;
819;SDS011;392;48.838;2.322;2023-04-25T10:09:17;10.73;;;9.60;;
819;SDS011;392;48.838;2.322;2023-04-25T10:11:47;11.43;;;7.70;;
819;SDS011;392;48.838;2.322;2023-04-25T10:14:15;9.30;;;8.40;;
819;SDS011;392;48.838;2.322;2023-04-25T10:16:44;9.60;;;7.97;;
819;SDS011;392;48.838;2.322;2023-04-25T10:19:12;7.87;;;6.93;;
819;SDS011;392;48.838;2.322;2023-04-25T10:21:43;7.90;;;7.20;;
819;SDS011;392;48.838;2.322;2023-04-25T10:24:15;8.17;;;7.37;;
819;SDS011;392;48.838;2.322;2023-04-25T10:26:43;8.03;;;6.97;;
819;SDS011;392;48.838;2.322;2023-04-25T10:29:11;8.20;;;7.50;;
819;SDS011;392;48.838;2.322;2023-04-25T10:31:45;7.87;;;7.00;;
819;SDS011;392;48.838;2.322;2023-04-25T10:34:13;9.53;;;7.50;;
819;SDS011;392;48.838;2.322;2023-04-25T10:36:42;7.97;;;7.27;;
819;SDS011;392;48.838;2.322;2023-04-25T10:39:09;9.60;;;7.20;;
819;SDS011;392;48.838;2.322;2023-04-25T10:41:46;10.33;;;7.90;;
819;SDS011;392;48.838;2.322;2023-04-25T10:44:19;10.67;;;8.47;;
819;SDS011;392;48.838;2.322;2023-04-25T10:46:47;10.37;;;7.80;;
819;SDS011;392;48.838;2.322;2023-04-25T10:49:30;8.03;;;7.23;;
819;SDS011;392;48.838;2.322;2023-04-25T10:52:16;13.40;;;7.73;;
819;SDS011;392;48.838;2.322;2023-04-25T10:54:46;8.90;;;8.00;;
819;SDS011;392;48.838;2.322;2023-04-25T10:57:31;8.77;;;7.40;;
819;SDS011;392;48.838;2.322;2023-04-25T11:00:13;6.37;;;5.57;;
819;SDS011;392;48.838;2.322;2023-04-25T11:02:45;7.00;;;6.30;;
819;SDS011;392;48.838;2.322;2023-04-25T11:05:20;8.23;;;6.10;;
819;SDS011;392;48.838;2.322;2023-04-25T11:07:53;11.20;;;6.00;;
819;SDS011;392;48.838;2.322;2023-04-25T11:10:24;5.67;;;4.93;;
819;SDS011;392;48.838;2.322;2023-04-25T11:12:53;7.63;;;5.00;;
819;SDS011;392;48.838;2.322;2023-04-25T11:15:20;9.10;;;6.40;;
819;SDS011;392;48.838;2.322;2023-04-25T11:17:50;8.00;;;5.67;;
819;SDS011;392;48.838;2.322;2023-04-25T11:20:18;8.40;;;5.80;;
819;SDS011;392;48.838;2.322;2023-04-25T11:22:45;7.40;;;6.27;;
819;SDS011;392;48.838;2.322;2023-04-25T11:25:14;6.10;;;5.50;;
819;SDS011;392;48.838;2.322;2023-04-25T11:27:51;9.70;;;5.43;;
819;SDS011;392;48.838;2.322;2023-04-25T11:30:20;6.77;;;6.07;;
819;SDS011;392;48.838;2.322;2023-04-25T11:32:51;5.53;;;5.03;;
819;SDS011;392;48.838;2.322;2023-04-25T11:35:19;6.20;;;5.67;;
819;SDS011;392;48.838;2.322;2023-04-25T11:37:48;6.93;;;6.10;;
819;SDS011;392;48.838;2.322;2023-04-25T11:40:16;6.83;;;5.63;;
819;SDS011;392;48.838;2.322;2023-04-25T11:42:44;7.37;;;6.20;;
819;SDS011;392;48.838;2.322;2023-04-25T11:45:13;7.33;;;5.80;;
819;SDS011;392;48.838;2.322;2023-04-25T11:47:41;9.17;;;6.60;;
819;SDS011;392;48.838;2.322;2023-04-25T11:50:10;6.57;;;5.80;;
819;SDS011;392;48.838;2.322;2023-04-25T11:52:39;6.10;;;5.50;;
819;SDS011;392;48.838;2.322;2023-04-25T11:55:09;8.70;;;6.27;;
819;SDS011;392;48.838;2.322;2023-04-25T11:57:39;10.93;;;6.93;;
819;SDS011;392;48.838;2.322;2023-04-25T12:00:09;8.33;;;6.30;;
819;SDS011;392;48.838;2.322;2023-04-25T12:02:42;6.70;;;6.10;;
819;SDS011;392;48.838;2.322;2023-04-25T12:05:13;8.57;;;6.30;;
819;SDS011;392;48.838;2.322;2023-04-25T12:07:41;8.13;;;5.90;;
819;SDS011;392;48.838;2.322;2023-04-25T12:10:10;6.43;;;5.60;;
819;SDS011;392;48.838;2.322;2023-04-25T12:12:41;6.33;;;5.73;;
819;SDS011;392;48.838;2.322;2023-04-25T12:15:10;6.60;;;5.37;;
819;SDS011;392;48.838;2.322;2023-04-25T12:17:41;6.93;;;6.30;;
819;SDS011;392;48.838;2.322;2023-04-25T12:20:13;6.23;;;5.40;;
819;SDS011;392;48.838;2.322;2023-04-25T12:22:43;6.60;;;5.67;;
819;SDS011;392;48.838;2.322;2023-04-25T12:25:13;7.83;;;5.70;;
819;SDS011;392;48.838;2.322;2023-04-25T12:28:08;7.33;;;6.60;;
819;SDS011;392;48.838;2.322;2023-04-25T12:30:53;8.50;;;6.50;;
819;SDS011;392;48.838;2.322;2023-04-25T12:33:26;7.97;;;6.13;;
819;SDS011;392;48.838;2.322;2023-04-25T12:35:57;7.13;;;5.63;;
819;SDS011;392;48.838;2.322;2023-04-25T12:38:25;7.73;;;5.63;;
819;SDS011;392;48.838;2.322;2023-04-25T12:40:54;6.67;;;6.03;;
819;SDS011;392;48.838;2.322;2023-04-25T12:43:22;6.63;;;5.93;;
819;SDS011;392;48.838;2.322;2023-04-25T12:45:50;7.77;;;6.30;;
819;SDS011;392;48.838;2.322;2023-04-25T12:48:19;8.80;;;6.43;;
819;SDS011;392;48.838;2.322;2023-04-25T12:50:47;7.67;;;6.30;;
819;SDS011;392;48.838;2.322;2023-04-25T12:53:16;11.27;;;6.73;;
819;SDS011;392;48.838;2.322;2023-04-25T12:55:44;7.93;;;6.50;;
819;SDS011;392;48.838;2.322;2023-04-25T12:58:12;9.90;;;6.13;;
819;SDS011;392;48.838;2.322;2023-04-25T13:00:39;7.70;;;6.20;;
819;SDS011;392;48.838;2.322;2023-04-25T13:03:08;10.00;;;7.50;;
819;SDS011;392;48.838;2.322;2023-04-25T13:05:36;7.60;;;6.90;;
819;SDS011;392;48.838;2.322;2023-04-25T13:08:03;6.50;;;6.00;;
819;SDS011;392;48.838;2.322;2023-04-25T13:10:32;9.00;;;6.13;;
819;SDS011;392;48.838;2.322;2023-04-25T13:13:01;6.53;;;5.40;;
819;SDS011;392;48.838;2.322;2023-04-25T13:15:28;6.63;;;6.00;;
819;SDS011;392;48.838;2.322;2023-04-25T13:17:56;8.90;;;6.33;;
819;SDS011;392;48.838;2.322;2023-04-25T13:20:23;9.07;;;6.33;;
819;SDS011;392;48.838;2.322;2023-04-25T13:22:50;6.20;;;5.70;;
819;SDS011;392;48.838;2.322;2023-04-25T13:25:18;7.97;;;6.00;;
819;SDS011;392;48.838;2.322;2023-04-25T13:27:48;8.43;;;6.07;;
819;SDS011;392;48.838;2.322;2023-04-25T13:30:15;7.03;;;6.30;;
819;SDS011;392;48.838;2.322;2023-04-25T13:32:43;7.70;;;6.47;;
819;SDS011;392;48.838;2.322;2023-04-25T13:35:11;8.20;;;7.37;;
819;SDS011;392;48.838;2.322;2023-04-25T13:37:40;9.53;;;6.87;;
819;SDS011;392;48.838;2.322;2023-04-25T13:40:08;7.07;;;5.80;;
819;SDS011;392;48.838;2.322;2023-04-25T13:42:37;6.90;;;6.30;;
819;SDS011;392;48.838;2.322;2023-04-25T13:45:07;6.93;;;6.07;;
819;SDS011;392;48.838;2.322;2023-04-25T13:47:35;6.70;;;6.10;;
819;SDS011;392;48.838;2.322;2023-04-25T13:50:03;7.77;;;5.90;;
819;SDS011;392;48.838;2.322;2023-04-25T13:52:32;6.50;;;5.90;;
819;SDS011;392;48.838;2.322;2023-04-25T13:54:59;5.73;;;5.20;;
819;SDS011;392;48.838;2.322;2023-04-25T13:57:30;6.03;;;5.53;;
819;SDS011;392;48.838;2.322;2023-04-25T13:59:57;7.23;;;4.90;;
819;SDS011;392;48.838;2.322;2023-04-25T14:02:26;5.40;;;4.90;;
819;SDS011;392;48.838;2.322;2023-04-25T14:04:53;9.17;;;5.27;;
819;SDS011;392;48.838;2.322;2023-04-25T14:07:20;5.60;;;5.07;;
819;SDS011;392;48.838;2.322;2023-04-25T14:09:47;5.10;;;4.63;;
819;SDS011;392;48.838;2.322;2023-04-25T14:12:15;5.37;;;4.87;;
819;SDS011;392;48.838;2.322;2023-04-25T14:14:43;8.23;;;5.60;;
819;SDS011;392;48.838;2.322;2023-04-25T14:17:11;7.87;;;5.73;;
819;SDS011;392;48.838;2.322;2023-04-25T14:19:40;7.93;;;6.37;;
819;SDS011;392;48.838;2.322;2023-04-25T14:22:08;7.93;;;5.93;;
819;SDS011;392;48.838;2.322;2023-04-25T14:24:36;7.87;;;5.60;;
819;SDS011;392;48.838;2.322;2023-04-25T14:27:03;6.97;;;6.00;;
819;SDS011;392;48.838;2.322;2023-04-25T14:29:30;7.17;;;6.30;;
819;SDS011;392;48.838;2.322;2023-04-25T14:31:58;5.50;;;5.00;;
819;SDS011;392;48.838;2.322;2023-04-25T14:34:25;9.50;;;6.10;;
819;SDS011;392;48.838;2.322;2023-04-25T14:36:54;6.33;;;5.53;;
819;SDS011;392;48.838;2.322;2023-04-25T14:39:21;5.40;;;4.90;;
819;SDS011;392;48.838;2.322;2023-04-25T14:41:48;6.47;;;5.83;;
819;SDS011;392;48.838;2.322;2023-04-25T14:44:16;5.50;;;5.00;;
819;SDS011;392;48.838;2.322;2023-04-25T14:46:43;8.50;;;5.23;;
819;SDS011;392;48.838;2.322;2023-04-25T14:49:10;4.50;;;4.20;;
819;SDS011;392;48.838;2.322;2023-04-25T14:51:39;7.00;;;4.57;;
819;SDS011;392;48.838;2.322;2023-04-25T14:54:07;4.20;;;3.87;;
819;SDS011;392;48.838;2.322;2023-04-25T14:56:36;5.70;;;4.90;;
819;SDS011;392;48.838;2.322;2023-04-25T14:59:03;4.73;;;4.27;;
819;SDS011;392;48.838;2.322;2023-04-25T15:01:31;5.10;;;4.70;;
819;SDS011;392;48.838;2.322;2023-04-25T15:03:58;5.57;;;5.07;;
819;SDS011;392;48.838;2.322;2023-04-25T15:06:25;5.07;;;4.57;;
819;SDS011;392;48.838;2.322;2023-04-25T15:08:54;10.60;;;5.60;;
819;SDS011;392;48.838;2.322;2023-04-25T15:11:23;5.23;;;4.23;;
819;SDS011;392;48.838;2.322;2023-04-25T15:13:51;5.97;;;4.50;;
819;SDS011;392;48.838;2.322;2023-04-25T15:16:18;4.43;;;4.03;;
819;SDS011;392;48.838;2.322;2023-04-25T15:18:46;4.43;;;4.13;;
819;SDS011;392;48.838;2.322;2023-04-25T15:21:13;5.23;;;4.40;;
819;SDS011;392;48.838;2.322;2023-04-25T15:23:41;4.93;;;3.90;;
819;SDS011;392;48.838;2.322;2023-04-25T15:26:09;5.00;;;4.50;;
819;SDS011;392;48.838;2.322;2023-04-25T15:28:38;5.20;;;4.80;;
819;SDS011;392;48.838;2.322;2023-04-25T15:31:06;6.70;;;4.50;;
819;SDS011;392;48.838;2.322;2023-04-25T15:33:34;5.77;;;5.17;;
819;SDS011;392;48.838;2.322;2023-04-25T15:36:03;4.80;;;4.40;;
819;SDS011;392;48.838;2.322;2023-04-25T15:38:31;6.43;;;5.30;;
819;SDS011;392;48.838;2.322;2023-04-25T15:40:58;8.70;;;4.70;;
819;SDS011;392;48.838;2.322;2023-04-25T15:43:26;6.47;;;5.00;;
819;SDS011;392;48.838;2.322;2023-04-25T15:45:55;6.90;;;5.37;;
819;SDS011;392;48.838;2.322;2023-04-25T15:48:23;5.90;;;5.07;;
819;SDS011;392;48.838;2.322;2023-04-25T15:50:50;9.37;;;5.53;;
819;SDS011;392;48.838;2.322;2023-04-25T15:53:17;7.33;;;5.40;;
819;SDS011;392;48.838;2.322;2023-04-25T15:55:45;6.00;;;5.47;;
819;SDS011;392;48.838;2.322;2023-04-25T15:58:12;6.60;;;5.53;;
819;SDS011;392;48.838;2.322;2023-04-25T16:00:40;6.50;;;5.83;;